Cookeville, TN (38506)

6:33 AM CDT on August 31, 2014 (GMT -0500)
Cane Creek | Change Station
CLOSE
Current Station
Personal Weather Station
Location: Cookeville, TN
Elevation: 1125 ft
Nearby Weather Stations
Active Advisory: Flash Flood Watch, Special Statement Active Notice: Local Storm Report

Elev 1125 ft 36.16 °N, 85.54 °W | Updated 1 second ago

Mostly Cloudy
Mostly Cloudy
68.9 °F
Feels Like 68.9 °F
N
0.0
Wind Variable Wind from South
Gusts 1.3 mph

Today
High -- | Low -- °F
--% Chance of Precip.
Yesterday
High -- | Low -- °F
Precip. -- in
6:12 AM 7:11 PM
Waxing Crescent, 30% visible
Pressure 30.12 in
Visibility 10.0 miles
Clouds Few 4100 ft
Scattered Clouds 6500 ft
Mostly Cloudy 9000 ft
Dew Point 66 °F
Humidity 90%
Rainfall 0.00 in
Snow Depth Not available.
UV 0 out of 12
Pollen 1.60 out of 12
Air Quality Not available.
Flu Activity Not available.
METAR KSRB 311115Z AUTO 18007KT 10SM FEW041 SCT065 BKN090 21/20 A3012 RMK

More Conditions Fewer Conditions

Pressure 30.12 in
Visibility 10.0 miles
Clouds Few 4100 ft
Scattered Clouds 6500 ft
Mostly Cloudy 9000 ft
Dew Point 66 °F
Humidity 90%
Rainfall 0.00 in
Snow Depth Not available.
UV 0 out of 12
Pollen 1.60 out of 12
Air Quality Not available.
Flu Activity Not available.
METAR KSRB 311115Z AUTO 18007KT 10SM FEW041 SCT065 BKN090 21/20 A3012 RMK

More Conditions Fewer Conditions

10-Day Weather Forecast

Almanac

Astronomy

Aug. 31, 2014 Rise Set
Actual Time 6:12 AM CDT 7:11 PM CDT
Civil Twilight 5:46 AM CDT 7:37 PM CDT
Nautical Twilight 5:15 AM CDT 8:08 PM CDT
Astronomical Twilight 4:43 AM CDT 8:40 PM CDT
Moon 11:47 AM CDT 10:37 PM CDT
Length of Visible Light 13h 50m
Length of Day
12h 58m
Tomorrow will be 2m 12s shorter.
Waxing Crescent, 30% of the Moon is Illuminated
Today
Waxing Crescent
Sep 2
First Quarter
Sep 8
Full
Sep 15
Last Quarter
Sep 24
New

Today's Extremes

State Highs State Lows

Community

WunderPhotos

Upload Photos

1,748,843 photos uploaded!

Nearby

Snow Depth

Station Depth Elevation
No new snow has been reported.

Earthquake Activity

City Distance Mag. Time & Date
No recent earthquake activity has been reported nearby.
Minimum magnitude displayed is 2.5.

Coastal Water Temperatures

Place Temperature
No Stations Reporting

Nearby Weather Stations